sensor_id;sensor_type;location;lat;lon;timestamp;P1;durP1;ratioP1;P2;durP2;ratioP2
21721;SDS011;11023;48.274;7.794;2023-07-02T00:00:02;0.60;;;0.52;;
21721;SDS011;11023;48.274;7.794;2023-07-02T00:02:30;1.48;;;0.80;;
21721;SDS011;11023;48.274;7.794;2023-07-02T00:04:56;0.80;;;0.80;;
21721;SDS011;11023;48.274;7.794;2023-07-02T00:07:22;0.73;;;0.70;;
21721;SDS011;11023;48.274;7.794;2023-07-02T00:09:47;0.80;;;0.70;;
21721;SDS011;11023;48.274;7.794;2023-07-02T00:12:13;1.63;;;1.10;;
21721;SDS011;11023;48.274;7.794;2023-07-02T00:14:39;1.27;;;1.00;;
21721;SDS011;11023;48.274;7.794;2023-07-02T00:17:05;1.02;;;0.85;;
21721;SDS011;11023;48.274;7.794;2023-07-02T00:19:31;0.98;;;0.90;;
21721;SDS011;11023;48.274;7.794;2023-07-02T00:21:59;1.15;;;1.00;;
21721;SDS011;11023;48.274;7.794;2023-07-02T00:24:25;0.95;;;0.60;;
21721;SDS011;11023;48.274;7.794;2023-07-02T00:26:51;1.10;;;1.00;;
21721;SDS011;11023;48.274;7.794;2023-07-02T00:29:16;1.20;;;0.90;;
21721;SDS011;11023;48.274;7.794;2023-07-02T00:31:42;1.10;;;1.00;;
21721;SDS011;11023;48.274;7.794;2023-07-02T00:34:08;1.50;;;1.02;;
21721;SDS011;11023;48.274;7.794;2023-07-02T00:36:34;0.73;;;0.65;;
21721;SDS011;11023;48.274;7.794;2023-07-02T00:39:00;1.08;;;0.88;;
21721;SDS011;11023;48.274;7.794;2023-07-02T00:41:25;1.23;;;0.90;;
21721;SDS011;11023;48.274;7.794;2023-07-02T00:43:51;1.55;;;1.00;;
21721;SDS011;11023;48.274;7.794;2023-07-02T00:46:20;1.52;;;1.00;;
21721;SDS011;11023;48.274;7.794;2023-07-02T00:48:47;1.50;;;1.10;;
21721;SDS011;11023;48.274;7.794;2023-07-02T00:51:14;1.00;;;0.98;;
21721;SDS011;11023;48.274;7.794;2023-07-02T00:53:41;1.02;;;0.75;;
21721;SDS011;11023;48.274;7.794;2023-07-02T00:56:09;1.23;;;1.10;;
21721;SDS011;11023;48.274;7.794;2023-07-02T00:58:36;0.80;;;0.80;;
21721;SDS011;11023;48.274;7.794;2023-07-02T01:01:05;2.13;;;1.23;;
21721;SDS011;11023;48.274;7.794;2023-07-02T01:03:31;0.68;;;0.68;;
21721;SDS011;11023;48.274;7.794;2023-07-02T01:06:01;1.23;;;0.98;;
21721;SDS011;11023;48.274;7.794;2023-07-02T01:08:28;0.73;;;0.73;;
21721;SDS011;11023;48.274;7.794;2023-07-02T01:10:54;1.35;;;1.05;;
21721;SDS011;11023;48.274;7.794;2023-07-02T01:13:20;1.20;;;1.10;;
21721;SDS011;11023;48.274;7.794;2023-07-02T01:15:50;1.63;;;1.00;;
21721;SDS011;11023;48.274;7.794;2023-07-02T01:18:16;1.90;;;1.10;;
21721;SDS011;11023;48.274;7.794;2023-07-02T01:20:42;1.10;;;1.00;;
21721;SDS011;11023;48.274;7.794;2023-07-02T01:23:08;1.20;;;1.00;;
21721;SDS011;11023;48.274;7.794;2023-07-02T01:25:35;1.17;;;0.90;;
21721;SDS011;11023;48.274;7.794;2023-07-02T01:28:04;2.17;;;1.15;;
21721;SDS011;11023;48.274;7.794;2023-07-02T01:30:30;1.38;;;1.10;;
21721;SDS011;11023;48.274;7.794;2023-07-02T01:32:56;1.63;;;1.13;;
21721;SDS011;11023;48.274;7.794;2023-07-02T01:35:21;1.60;;;1.40;;
21721;SDS011;11023;48.274;7.794;2023-07-02T01:37:47;2.38;;;1.20;;
21721;SDS011;11023;48.274;7.794;2023-07-02T01:40:13;4.95;;;1.65;;
21721;SDS011;11023;48.274;7.794;2023-07-02T01:42:41;1.80;;;1.08;;
21721;SDS011;11023;48.274;7.794;2023-07-02T01:45:07;1.63;;;1.00;;
21721;SDS011;11023;48.274;7.794;2023-07-02T01:47:33;2.45;;;1.27;;
21721;SDS011;11023;48.274;7.794;2023-07-02T01:49:59;1.15;;;1.05;;
21721;SDS011;11023;48.274;7.794;2023-07-02T01:52:27;1.95;;;1.10;;
21721;SDS011;11023;48.274;7.794;2023-07-02T01:54:54;2.17;;;1.10;;
21721;SDS011;11023;48.274;7.794;2023-07-02T01:57:20;1.88;;;1.35;;
21721;SDS011;11023;48.274;7.794;2023-07-02T01:59:45;1.38;;;1.10;;
21721;SDS011;11023;48.274;7.794;2023-07-02T02:02:11;1.27;;;1.10;;
21721;SDS011;11023;48.274;7.794;2023-07-02T02:04:37;1.88;;;1.42;;
21721;SDS011;11023;48.274;7.794;2023-07-02T02:07:03;2.13;;;1.40;;
21721;SDS011;11023;48.274;7.794;2023-07-02T02:09:28;2.42;;;1.40;;
21721;SDS011;11023;48.274;7.794;2023-07-02T02:11:57;1.85;;;1.20;;
21721;SDS011;11023;48.274;7.794;2023-07-02T02:14:22;2.90;;;1.48;;
21721;SDS011;11023;48.274;7.794;2023-07-02T02:16:48;2.45;;;1.40;;
21721;SDS011;11023;48.274;7.794;2023-07-02T02:19:14;1.63;;;1.23;;
21721;SDS011;11023;48.274;7.794;2023-07-02T02:21:40;2.25;;;1.42;;
21721;SDS011;11023;48.274;7.794;2023-07-02T02:24:06;1.35;;;1.10;;
21721;SDS011;11023;48.274;7.794;2023-07-02T02:26:33;2.28;;;1.60;;
21721;SDS011;11023;48.274;7.794;2023-07-02T02:28:59;2.80;;;1.55;;
21721;SDS011;11023;48.274;7.794;2023-07-02T02:31:24;2.05;;;1.30;;
21721;SDS011;11023;48.274;7.794;2023-07-02T02:33:50;5.93;;;1.52;;
21721;SDS011;11023;48.274;7.794;2023-07-02T02:36:16;1.80;;;1.17;;
21721;SDS011;11023;48.274;7.794;2023-07-02T02:38:42;2.53;;;1.50;;
21721;SDS011;11023;48.274;7.794;2023-07-02T02:41:08;1.77;;;1.25;;
21721;SDS011;11023;48.274;7.794;2023-07-02T02:43:34;4.45;;;1.48;;
21721;SDS011;11023;48.274;7.794;2023-07-02T02:46:00;3.15;;;1.30;;
21721;SDS011;11023;48.274;7.794;2023-07-02T02:48:25;4.30;;;1.40;;
21721;SDS011;11023;48.274;7.794;2023-07-02T02:50:51;3.10;;;1.40;;
21721;SDS011;11023;48.274;7.794;2023-07-02T02:53:17;2.63;;;1.60;;
21721;SDS011;11023;48.274;7.794;2023-07-02T02:55:43;2.80;;;1.60;;
21721;SDS011;11023;48.274;7.794;2023-07-02T02:58:08;3.72;;;1.77;;
21721;SDS011;11023;48.274;7.794;2023-07-02T03:00:34;2.80;;;1.38;;
21721;SDS011;11023;48.274;7.794;2023-07-02T03:03:00;2.45;;;1.60;;
21721;SDS011;11023;48.274;7.794;2023-07-02T03:05:26;2.58;;;1.27;;
21721;SDS011;11023;48.274;7.794;2023-07-02T03:07:51;3.83;;;1.70;;
21721;SDS011;11023;48.274;7.794;2023-07-02T03:10:17;2.92;;;1.50;;
21721;SDS011;11023;48.274;7.794;2023-07-02T03:12:43;2.13;;;1.48;;
21721;SDS011;11023;48.274;7.794;2023-07-02T03:15:09;3.17;;;1.70;;
21721;SDS011;11023;48.274;7.794;2023-07-02T03:17:35;2.97;;;1.83;;
21721;SDS011;11023;48.274;7.794;2023-07-02T03:20:02;3.20;;;1.92;;
21721;SDS011;11023;48.274;7.794;2023-07-02T03:22:32;2.63;;;1.90;;
21721;SDS011;11023;48.274;7.794;2023-07-02T03:24:58;3.00;;;1.75;;
21721;SDS011;11023;48.274;7.794;2023-07-02T03:27:24;5.20;;;2.00;;
21721;SDS011;11023;48.274;7.794;2023-07-02T03:29:51;2.58;;;1.85;;
21721;SDS011;11023;48.274;7.794;2023-07-02T03:32:17;3.65;;;1.88;;
21721;SDS011;11023;48.274;7.794;2023-07-02T03:34:42;3.42;;;1.85;;
21721;SDS011;11023;48.274;7.794;2023-07-02T03:37:08;4.63;;;2.10;;
21721;SDS011;11023;48.274;7.794;2023-07-02T03:39:34;3.88;;;1.92;;
21721;SDS011;11023;48.274;7.794;2023-07-02T03:41:59;4.35;;;2.03;;
21721;SDS011;11023;48.274;7.794;2023-07-02T03:44:25;4.22;;;1.65;;
21721;SDS011;11023;48.274;7.794;2023-07-02T03:46:51;3.08;;;1.98;;
21721;SDS011;11023;48.274;7.794;2023-07-02T03:49:16;4.07;;;2.13;;
21721;SDS011;11023;48.274;7.794;2023-07-02T03:51:42;3.70;;;2.22;;
21721;SDS011;11023;48.274;7.794;2023-07-02T03:54:08;2.67;;;1.73;;
21721;SDS011;11023;48.274;7.794;2023-07-02T03:56:33;5.03;;;2.05;;
21721;SDS011;11023;48.274;7.794;2023-07-02T03:58:59;3.08;;;1.88;;
21721;SDS011;11023;48.274;7.794;2023-07-02T04:01:25;2.13;;;1.60;;
21721;SDS011;11023;48.274;7.794;2023-07-02T04:03:51;2.92;;;1.67;;
21721;SDS011;11023;48.274;7.794;2023-07-02T04:06:18;3.83;;;1.73;;
21721;SDS011;11023;48.274;7.794;2023-07-02T04:08:44;2.25;;;1.60;;
21721;SDS011;11023;48.274;7.794;2023-07-02T04:11:10;3.03;;;1.90;;
21721;SDS011;11023;48.274;7.794;2023-07-02T04:13:36;4.68;;;1.80;;
21721;SDS011;11023;48.274;7.794;2023-07-02T04:16:02;3.63;;;1.77;;
21721;SDS011;11023;48.274;7.794;2023-07-02T04:18:28;2.10;;;1.48;;
21721;SDS011;11023;48.274;7.794;2023-07-02T04:20:54;3.50;;;1.85;;
21721;SDS011;11023;48.274;7.794;2023-07-02T04:23:20;2.70;;;1.85;;
21721;SDS011;11023;48.274;7.794;2023-07-02T04:25:46;5.28;;;2.20;;
21721;SDS011;11023;48.274;7.794;2023-07-02T04:28:11;2.63;;;1.80;;
21721;SDS011;11023;48.274;7.794;2023-07-02T04:30:37;3.90;;;1.90;;
21721;SDS011;11023;48.274;7.794;2023-07-02T04:33:03;4.30;;;2.10;;
21721;SDS011;11023;48.274;7.794;2023-07-02T04:35:30;4.22;;;2.05;;
21721;SDS011;11023;48.274;7.794;2023-07-02T04:37:56;2.38;;;1.85;;
21721;SDS011;11023;48.274;7.794;2023-07-02T04:40:22;2.42;;;1.55;;
21721;SDS011;11023;48.274;7.794;2023-07-02T04:42:48;2.15;;;1.65;;
21721;SDS011;11023;48.274;7.794;2023-07-02T04:45:14;3.88;;;2.78;;
21721;SDS011;11023;48.274;7.794;2023-07-02T04:47:44;4.00;;;2.55;;
21721;SDS011;11023;48.274;7.794;2023-07-02T04:50:10;5.22;;;2.05;;
21721;SDS011;11023;48.274;7.794;2023-07-02T04:52:39;1.83;;;1.35;;
21721;SDS011;11023;48.274;7.794;2023-07-02T04:55:05;3.00;;;1.92;;
21721;SDS011;11023;48.274;7.794;2023-07-02T04:57:31;3.40;;;1.67;;
21721;SDS011;11023;48.274;7.794;2023-07-02T04:59:57;4.43;;;2.15;;
21721;SDS011;11023;48.274;7.794;2023-07-02T05:02:23;2.92;;;2.08;;
21721;SDS011;11023;48.274;7.794;2023-07-02T05:04:48;5.32;;;1.60;;
21721;SDS011;11023;48.274;7.794;2023-07-02T05:07:15;3.60;;;1.70;;
21721;SDS011;11023;48.274;7.794;2023-07-02T05:09:41;2.78;;;1.88;;
21721;SDS011;11023;48.274;7.794;2023-07-02T05:12:07;2.58;;;1.50;;
21721;SDS011;11023;48.274;7.794;2023-07-02T05:14:33;3.00;;;2.05;;
21721;SDS011;11023;48.274;7.794;2023-07-02T05:16:59;5.53;;;2.53;;
21721;SDS011;11023;48.274;7.794;2023-07-02T05:19:24;6.00;;;2.70;;
21721;SDS011;11023;48.274;7.794;2023-07-02T05:21:50;6.03;;;3.40;;
21721;SDS011;11023;48.274;7.794;2023-07-02T05:24:16;6.38;;;3.08;;
21721;SDS011;11023;48.274;7.794;2023-07-02T05:26:51;4.70;;;2.60;;
21721;SDS011;11023;48.274;7.794;2023-07-02T05:29:16;7.90;;;3.03;;
21721;SDS011;11023;48.274;7.794;2023-07-02T05:31:42;6.80;;;2.70;;
21721;SDS011;11023;48.274;7.794;2023-07-02T05:34:08;6.03;;;3.25;;
21721;SDS011;11023;48.274;7.794;2023-07-02T05:36:33;5.63;;;2.72;;
21721;SDS011;11023;48.274;7.794;2023-07-02T05:38:59;6.72;;;2.97;;
21721;SDS011;11023;48.274;7.794;2023-07-02T05:41:25;8.23;;;3.22;;
21721;SDS011;11023;48.274;7.794;2023-07-02T05:43:55;7.45;;;4.03;;
21721;SDS011;11023;48.274;7.794;2023-07-02T05:46:24;8.40;;;4.05;;
21721;SDS011;11023;48.274;7.794;2023-07-02T05:48:50;9.02;;;4.20;;
21721;SDS011;11023;48.274;7.794;2023-07-02T05:51:22;9.25;;;4.10;;
21721;SDS011;11023;48.274;7.794;2023-07-02T05:53:49;7.68;;;4.05;;
21721;SDS011;11023;48.274;7.794;2023-07-02T05:56:17;8.07;;;4.80;;
21721;SDS011;11023;48.274;7.794;2023-07-02T05:58:43;10.10;;;4.28;;
21721;SDS011;11023;48.274;7.794;2023-07-02T06:01:10;8.45;;;3.42;;
21721;SDS011;11023;48.274;7.794;2023-07-02T06:03:35;10.55;;;4.22;;
21721;SDS011;11023;48.274;7.794;2023-07-02T06:06:02;10.70;;;4.10;;
21721;SDS011;11023;48.274;7.794;2023-07-02T06:08:28;11.80;;;4.35;;
21721;SDS011;11023;48.274;7.794;2023-07-02T06:10:53;11.43;;;4.50;;
21721;SDS011;11023;48.274;7.794;2023-07-02T06:13:19;12.27;;;5.07;;
21721;SDS011;11023;48.274;7.794;2023-07-02T06:15:45;10.10;;;4.30;;
21721;SDS011;11023;48.274;7.794;2023-07-02T06:18:12;12.63;;;4.82;;
21721;SDS011;11023;48.274;7.794;2023-07-02T06:20:38;12.10;;;5.18;;
21721;SDS011;11023;48.274;7.794;2023-07-02T06:23:04;12.70;;;5.07;;
21721;SDS011;11023;48.274;7.794;2023-07-02T06:25:29;13.90;;;5.53;;
21721;SDS011;11023;48.274;7.794;2023-07-02T06:27:55;10.27;;;4.80;;
21721;SDS011;11023;48.274;7.794;2023-07-02T06:30:23;13.80;;;6.18;;
21721;SDS011;11023;48.274;7.794;2023-07-02T06:32:50;12.82;;;6.22;;
21721;SDS011;11023;48.274;7.794;2023-07-02T06:35:15;16.83;;;6.53;;
21721;SDS011;11023;48.274;7.794;2023-07-02T06:37:41;12.10;;;6.28;;
21721;SDS011;11023;48.274;7.794;2023-07-02T06:40:07;10.30;;;6.20;;
21721;SDS011;11023;48.274;7.794;2023-07-02T06:42:33;14.15;;;6.57;;
21721;SDS011;11023;48.274;7.794;2023-07-02T06:45:01;15.32;;;6.80;;
21721;SDS011;11023;48.274;7.794;2023-07-02T06:47:27;15.82;;;6.72;;
21721;SDS011;11023;48.274;7.794;2023-07-02T06:49:52;12.50;;;6.15;;
21721;SDS011;11023;48.274;7.794;2023-07-02T06:52:18;12.48;;;6.47;;
21721;SDS011;11023;48.274;7.794;2023-07-02T06:54:44;14.43;;;7.00;;
21721;SDS011;11023;48.274;7.794;2023-07-02T06:57:10;14.18;;;6.55;;
21721;SDS011;11023;48.274;7.794;2023-07-02T06:59:37;17.77;;;7.47;;
21721;SDS011;11023;48.274;7.794;2023-07-02T07:02:03;13.20;;;6.90;;
21721;SDS011;11023;48.274;7.794;2023-07-02T07:04:28;18.08;;;7.10;;
21721;SDS011;11023;48.274;7.794;2023-07-02T07:06:54;14.95;;;8.07;;
21721;SDS011;11023;48.274;7.794;2023-07-02T07:09:20;17.17;;;7.50;;
21721;SDS011;11023;48.274;7.794;2023-07-02T07:11:46;18.30;;;7.80;;
21721;SDS011;11023;48.274;7.794;2023-07-02T07:14:12;16.75;;;7.25;;
21721;SDS011;11023;48.274;7.794;2023-07-02T07:16:38;12.88;;;7.07;;
21721;SDS011;11023;48.274;7.794;2023-07-02T07:19:04;16.02;;;6.90;;
21721;SDS011;11023;48.274;7.794;2023-07-02T07:21:29;18.58;;;7.60;;
21721;SDS011;11023;48.274;7.794;2023-07-02T07:23:55;14.10;;;7.22;;
21721;SDS011;11023;48.274;7.794;2023-07-02T07:26:21;16.40;;;7.32;;
21721;SDS011;11023;48.274;7.794;2023-07-02T07:28:47;15.93;;;7.10;;
21721;SDS011;11023;48.274;7.794;2023-07-02T07:31:12;13.63;;;7.28;;
21721;SDS011;11023;48.274;7.794;2023-07-02T07:33:38;16.15;;;7.93;;
21721;SDS011;11023;48.274;7.794;2023-07-02T07:36:04;13.90;;;7.32;;
21721;SDS011;11023;48.274;7.794;2023-07-02T07:38:29;17.42;;;7.32;;
21721;SDS011;11023;48.274;7.794;2023-07-02T07:40:55;15.68;;;6.72;;
21721;SDS011;11023;48.274;7.794;2023-07-02T07:43:21;16.30;;;7.20;;
21721;SDS011;11023;48.274;7.794;2023-07-02T07:45:46;15.00;;;7.03;;
21721;SDS011;11023;48.274;7.794;2023-07-02T07:48:12;17.88;;;7.72;;
21721;SDS011;11023;48.274;7.794;2023-07-02T07:50:38;17.13;;;7.95;;
21721;SDS011;11023;48.274;7.794;2023-07-02T07:53:03;14.15;;;7.43;;
21721;SDS011;11023;48.274;7.794;2023-07-02T07:55:29;19.00;;;8.27;;
21721;SDS011;11023;48.274;7.794;2023-07-02T07:57:55;16.25;;;7.88;;
21721;SDS011;11023;48.274;7.794;2023-07-02T08:00:21;16.27;;;7.85;;
21721;SDS011;11023;48.274;7.794;2023-07-02T08:02:47;19.35;;;8.65;;
21721;SDS011;11023;48.274;7.794;2023-07-02T08:05:13;15.00;;;8.30;;
21721;SDS011;11023;48.274;7.794;2023-07-02T08:07:39;18.20;;;8.15;;
21721;SDS011;11023;48.274;7.794;2023-07-02T08:10:08;16.23;;;7.70;;
21721;SDS011;11023;48.274;7.794;2023-07-02T08:12:34;15.40;;;7.95;;
21721;SDS011;11023;48.274;7.794;2023-07-02T08:15:00;19.27;;;8.90;;
21721;SDS011;11023;48.274;7.794;2023-07-02T08:17:25;17.75;;;7.57;;
21721;SDS011;11023;48.274;7.794;2023-07-02T08:19:51;17.48;;;8.10;;
21721;SDS011;11023;48.274;7.794;2023-07-02T08:22:17;18.55;;;8.77;;
21721;SDS011;11023;48.274;7.794;2023-07-02T08:24:43;16.63;;;8.52;;
21721;SDS011;11023;48.274;7.794;2023-07-02T08:27:09;16.63;;;8.60;;
21721;SDS011;11023;48.274;7.794;2023-07-02T08:29:38;18.27;;;8.73;;
21721;SDS011;11023;48.274;7.794;2023-07-02T08:32:04;17.00;;;8.30;;
21721;SDS011;11023;48.274;7.794;2023-07-02T08:34:30;15.73;;;8.63;;
21721;SDS011;11023;48.274;7.794;2023-07-02T08:36:55;19.58;;;8.77;;
21721;SDS011;11023;48.274;7.794;2023-07-02T08:39:21;18.63;;;8.27;;
21721;SDS011;11023;48.274;7.794;2023-07-02T08:41:47;18.45;;;8.82;;
21721;SDS011;11023;48.274;7.794;2023-07-02T08:44:14;18.60;;;8.45;;
21721;SDS011;11023;48.274;7.794;2023-07-02T08:46:43;21.10;;;8.23;;
21721;SDS011;11023;48.274;7.794;2023-07-02T08:49:09;18.35;;;8.90;;
21721;SDS011;11023;48.274;7.794;2023-07-02T08:51:35;22.27;;;9.02;;
21721;SDS011;11023;48.274;7.794;2023-07-02T08:54:01;16.27;;;9.02;;
21721;SDS011;11023;48.274;7.794;2023-07-02T08:56:28;18.73;;;9.10;;
21721;SDS011;11023;48.274;7.794;2023-07-02T08:58:54;19.65;;;8.98;;
21721;SDS011;11023;48.274;7.794;2023-07-02T09:01:20;16.85;;;8.27;;
21721;SDS011;11023;48.274;7.794;2023-07-02T09:03:46;16.40;;;8.68;;
21721;SDS011;11023;48.274;7.794;2023-07-02T09:06:12;15.00;;;8.48;;
21721;SDS011;11023;48.274;7.794;2023-07-02T09:08:38;16.50;;;8.88;;
21721;SDS011;11023;48.274;7.794;2023-07-02T09:11:14;19.00;;;8.65;;
21721;SDS011;11023;48.274;7.794;2023-07-02T09:13:47;18.10;;;8.43;;
21721;SDS011;11023;48.274;7.794;2023-07-02T09:16:23;15.80;;;7.75;;
21721;SDS011;11023;48.274;7.794;2023-07-02T09:19:06;17.08;;;8.52;;
21721;SDS011;11023;48.274;7.794;2023-07-02T09:24:16;20.67;;;8.48;;
21721;SDS011;11023;48.274;7.794;2023-07-02T09:26:42;15.98;;;7.93;;
21721;SDS011;11023;48.274;7.794;2023-07-02T09:29:14;17.73;;;8.23;;
21721;SDS011;11023;48.274;7.794;2023-07-02T09:31:49;16.85;;;8.30;;
21721;SDS011;11023;48.274;7.794;2023-07-02T09:34:15;21.35;;;8.65;;
21721;SDS011;11023;48.274;7.794;2023-07-02T09:36:41;17.13;;;8.80;;
21721;SDS011;11023;48.274;7.794;2023-07-02T09:39:11;16.23;;;8.38;;
21721;SDS011;11023;48.274;7.794;2023-07-02T09:41:41;17.15;;;8.35;;
21721;SDS011;11023;48.274;7.794;2023-07-02T09:44:08;16.52;;;7.78;;
21721;SDS011;11023;48.274;7.794;2023-07-02T09:46:41;16.13;;;7.40;;
21721;SDS011;11023;48.274;7.794;2023-07-02T09:49:14;17.13;;;8.18;;
21721;SDS011;11023;48.274;7.794;2023-07-02T09:51:42;16.27;;;7.07;;
21721;SDS011;11023;48.274;7.794;2023-07-02T09:54:09;17.52;;;8.50;;
21721;SDS011;11023;48.274;7.794;2023-07-02T09:56:35;17.38;;;7.95;;
21721;SDS011;11023;48.274;7.794;2023-07-02T09:59:01;15.25;;;7.38;;
21721;SDS011;11023;48.274;7.794;2023-07-02T10:01:27;15.55;;;6.90;;
21721;SDS011;11023;48.274;7.794;2023-07-02T10:03:52;15.75;;;7.75;;
21721;SDS011;11023;48.274;7.794;2023-07-02T10:06:18;14.45;;;7.05;;
21721;SDS011;11023;48.274;7.794;2023-07-02T10:08:53;18.20;;;7.50;;
21721;SDS011;11023;48.274;7.794;2023-07-02T10:11:20;15.38;;;7.38;;
21721;SDS011;11023;48.274;7.794;2023-07-02T10:13:58;14.93;;;7.05;;
21721;SDS011;11023;48.274;7.794;2023-07-02T10:16:24;14.82;;;8.02;;
21721;SDS011;11023;48.274;7.794;2023-07-02T10:18:52;14.02;;;6.90;;
21721;SDS011;11023;48.274;7.794;2023-07-02T10:21:19;13.70;;;6.57;;
21721;SDS011;11023;48.274;7.794;2023-07-02T10:23:45;18.92;;;7.28;;
21721;SDS011;11023;48.274;7.794;2023-07-02T10:28:59;15.70;;;7.53;;
21721;SDS011;11023;48.274;7.794;2023-07-02T10:31:28;13.15;;;6.97;;
21721;SDS011;11023;48.274;7.794;2023-07-02T10:33:55;15.07;;;7.22;;
21721;SDS011;11023;48.274;7.794;2023-07-02T10:36:21;12.82;;;6.93;;
21721;SDS011;11023;48.274;7.794;2023-07-02T10:38:48;14.15;;;6.68;;
21721;SDS011;11023;48.274;7.794;2023-07-02T10:41:28;14.85;;;7.32;;
21721;SDS011;11023;48.274;7.794;2023-07-02T10:44:04;17.80;;;7.07;;
21721;SDS011;11023;48.274;7.794;2023-07-02T10:46:34;11.60;;;6.22;;
21721;SDS011;11023;48.274;7.794;2023-07-02T10:49:08;13.00;;;6.88;;
21721;SDS011;11023;48.274;7.794;2023-07-02T10:51:34;15.85;;;6.93;;
21721;SDS011;11023;48.274;7.794;2023-07-02T10:54:00;10.75;;;6.38;;
21721;SDS011;11023;48.274;7.794;2023-07-02T10:56:27;11.88;;;6.32;;
21721;SDS011;11023;48.274;7.794;2023-07-02T10:58:53;13.65;;;6.57;;
21721;SDS011;11023;48.274;7.794;2023-07-02T11:01:23;13.48;;;6.63;;
21721;SDS011;11023;48.274;7.794;2023-07-02T11:03:56;17.65;;;7.43;;
21721;SDS011;11023;48.274;7.794;2023-07-02T11:06:22;14.50;;;6.65;;
21721;SDS011;11023;48.274;7.794;2023-07-02T11:08:48;15.02;;;7.20;;
21721;SDS011;11023;48.274;7.794;2023-07-02T11:11:13;15.15;;;7.75;;
21721;SDS011;11023;48.274;7.794;2023-07-02T11:13:45;15.52;;;7.28;;
21721;SDS011;11023;48.274;7.794;2023-07-02T11:16:23;17.27;;;7.45;;
21721;SDS011;11023;48.274;7.794;2023-07-02T11:19:06;15.20;;;6.97;;
21721;SDS011;11023;48.274;7.794;2023-07-02T11:21:36;14.52;;;6.43;;
21721;SDS011;11023;48.274;7.794;2023-07-02T11:24:03;15.07;;;6.68;;
21721;SDS011;11023;48.274;7.794;2023-07-02T11:26:37;13.02;;;6.93;;
21721;SDS011;11023;48.274;7.794;2023-07-02T11:29:03;13.55;;;6.70;;
21721;SDS011;11023;48.274;7.794;2023-07-02T11:31:29;14.73;;;6.40;;
21721;SDS011;11023;48.274;7.794;2023-07-02T11:33:54;16.05;;;6.43;;
21721;SDS011;11023;48.274;7.794;2023-07-02T11:36:21;12.48;;;6.85;;
21721;SDS011;11023;48.274;7.794;2023-07-02T11:38:49;20.55;;;9.63;;
21721;SDS011;11023;48.274;7.794;2023-07-02T11:41:15;20.05;;;10.18;;
21721;SDS011;11023;48.274;7.794;2023-07-02T11:43:41;19.20;;;9.13;;
21721;SDS011;11023;48.274;7.794;2023-07-02T11:46:07;18.77;;;8.95;;
21721;SDS011;11023;48.274;7.794;2023-07-02T11:48:33;19.08;;;8.95;;
21721;SDS011;11023;48.274;7.794;2023-07-02T11:50:58;19.88;;;9.15;;
21721;SDS011;11023;48.274;7.794;2023-07-02T11:53:24;17.38;;;8.63;;
21721;SDS011;11023;48.274;7.794;2023-07-02T11:55:50;19.27;;;9.43;;
21721;SDS011;11023;48.274;7.794;2023-07-02T11:58:16;17.27;;;8.55;;
21721;SDS011;11023;48.274;7.794;2023-07-02T12:00:41;17.05;;;8.02;;
21721;SDS011;11023;48.274;7.794;2023-07-02T12:03:07;15.98;;;6.78;;
21721;SDS011;11023;48.274;7.794;2023-07-02T12:05:33;12.20;;;5.93;;
21721;SDS011;11023;48.274;7.794;2023-07-02T12:07:58;10.95;;;5.75;;
21721;SDS011;11023;48.274;7.794;2023-07-02T12:10:24;14.95;;;5.88;;
21721;SDS011;11023;48.274;7.794;2023-07-02T12:12:50;14.77;;;6.85;;
21721;SDS011;11023;48.274;7.794;2023-07-02T12:15:15;12.65;;;6.47;;
21721;SDS011;11023;48.274;7.794;2023-07-02T12:17:41;10.52;;;6.00;;
21721;SDS011;11023;48.274;7.794;2023-07-02T12:20:07;13.85;;;6.50;;
21721;SDS011;11023;48.274;7.794;2023-07-02T12:22:33;14.75;;;6.18;;
21721;SDS011;11023;48.274;7.794;2023-07-02T12:24:58;13.10;;;6.30;;
21721;SDS011;11023;48.274;7.794;2023-07-02T12:27:24;12.35;;;6.72;;
21721;SDS011;11023;48.274;7.794;2023-07-02T12:29:52;13.48;;;6.35;;
21721;SDS011;11023;48.274;7.794;2023-07-02T12:32:18;10.35;;;6.18;;
21721;SDS011;11023;48.274;7.794;2023-07-02T12:34:43;13.32;;;6.53;;
21721;SDS011;11023;48.274;7.794;2023-07-02T12:37:09;12.30;;;6.65;;
21721;SDS011;11023;48.274;7.794;2023-07-02T12:39:34;11.40;;;5.78;;
21721;SDS011;11023;48.274;7.794;2023-07-02T12:42:00;11.82;;;5.70;;
21721;SDS011;11023;48.274;7.794;2023-07-02T12:44:26;12.27;;;6.20;;
21721;SDS011;11023;48.274;7.794;2023-07-02T12:46:51;12.85;;;6.75;;
21721;SDS011;11023;48.274;7.794;2023-07-02T12:49:17;11.27;;;5.85;;
21721;SDS011;11023;48.274;7.794;2023-07-02T12:51:43;15.05;;;6.93;;
21721;SDS011;11023;48.274;7.794;2023-07-02T12:54:08;11.60;;;6.32;;
21721;SDS011;11023;48.274;7.794;2023-07-02T12:56:34;11.82;;;6.28;;
21721;SDS011;11023;48.274;7.794;2023-07-02T12:59:01;11.60;;;5.82;;
21721;SDS011;11023;48.274;7.794;2023-07-02T13:01:27;12.05;;;5.53;;
21721;SDS011;11023;48.274;7.794;2023-07-02T13:03:53;13.45;;;5.97;;
21721;SDS011;11023;48.274;7.794;2023-07-02T13:06:19;12.15;;;6.05;;
21721;SDS011;11023;48.274;7.794;2023-07-02T13:08:44;12.45;;;6.15;;
21721;SDS011;11023;48.274;7.794;2023-07-02T13:11:10;16.45;;;7.35;;
21721;SDS011;11023;48.274;7.794;2023-07-02T13:13:35;14.95;;;7.18;;
21721;SDS011;11023;48.274;7.794;2023-07-02T13:16:01;12.63;;;6.47;;
21721;SDS011;11023;48.274;7.794;2023-07-02T13:18:27;13.30;;;6.35;;
21721;SDS011;11023;48.274;7.794;2023-07-02T13:20:53;10.85;;;6.18;;
21721;SDS011;11023;48.274;7.794;2023-07-02T13:23:19;8.95;;;5.45;;
21721;SDS011;11023;48.274;7.794;2023-07-02T13:25:44;10.40;;;5.88;;
21721;SDS011;11023;48.274;7.794;2023-07-02T13:28:10;10.73;;;5.70;;
21721;SDS011;11023;48.274;7.794;2023-07-02T13:30:36;10.48;;;5.75;;
21721;SDS011;11023;48.274;7.794;2023-07-02T13:33:01;10.65;;;6.03;;
21721;SDS011;11023;48.274;7.794;2023-07-02T13:35:27;11.50;;;6.22;;
21721;SDS011;11023;48.274;7.794;2023-07-02T13:37:53;11.55;;;6.50;;
21721;SDS011;11023;48.274;7.794;2023-07-02T13:40:18;12.52;;;6.57;;
21721;SDS011;11023;48.274;7.794;2023-07-02T13:42:44;12.20;;;6.07;;
21721;SDS011;11023;48.274;7.794;2023-07-02T13:45:10;10.73;;;6.22;;
21721;SDS011;11023;48.274;7.794;2023-07-02T13:47:36;10.55;;;6.20;;
21721;SDS011;11023;48.274;7.794;2023-07-02T13:50:02;12.45;;;5.72;;
21721;SDS011;11023;48.274;7.794;2023-07-02T13:52:28;11.45;;;5.72;;
21721;SDS011;11023;48.274;7.794;2023-07-02T13:54:54;11.00;;;5.70;;
21721;SDS011;11023;48.274;7.794;2023-07-02T13:57:20;9.50;;;5.72;;
21721;SDS011;11023;48.274;7.794;2023-07-02T13:59:46;10.45;;;5.25;;
21721;SDS011;11023;48.274;7.794;2023-07-02T14:02:11;10.80;;;5.90;;
21721;SDS011;11023;48.274;7.794;2023-07-02T14:04:37;14.43;;;5.78;;
21721;SDS011;11023;48.274;7.794;2023-07-02T14:07:04;8.18;;;5.15;;
21721;SDS011;11023;48.274;7.794;2023-07-02T14:09:30;14.48;;;6.05;;
21721;SDS011;11023;48.274;7.794;2023-07-02T14:11:55;10.60;;;5.80;;
21721;SDS011;11023;48.274;7.794;2023-07-02T14:14:21;10.30;;;5.68;;
21721;SDS011;11023;48.274;7.794;2023-07-02T14:16:47;9.25;;;5.40;;
21721;SDS011;11023;48.274;7.794;2023-07-02T14:19:13;10.73;;;5.78;;
21721;SDS011;11023;48.274;7.794;2023-07-02T14:21:40;11.32;;;6.13;;
21721;SDS011;11023;48.274;7.794;2023-07-02T14:24:06;11.90;;;5.78;;
21721;SDS011;11023;48.274;7.794;2023-07-02T14:26:32;11.07;;;5.85;;
21721;SDS011;11023;48.274;7.794;2023-07-02T14:28:58;10.63;;;5.90;;
21721;SDS011;11023;48.274;7.794;2023-07-02T14:31:24;12.60;;;5.75;;
21721;SDS011;11023;48.274;7.794;2023-07-02T14:33:49;12.80;;;5.97;;
21721;SDS011;11023;48.274;7.794;2023-07-02T14:36:15;9.80;;;5.75;;
21721;SDS011;11023;48.274;7.794;2023-07-02T14:38:41;9.73;;;5.30;;
21721;SDS011;11023;48.274;7.794;2023-07-02T14:41:07;12.18;;;5.78;;